Time;durP1;ratioP1;P1;durP2;ratioP2;P2;SDS_P1;SDS_P2;PMS_P1;PMS_P2;Temp;Humidity;BMP_temperature;BMP_pressure;BME280_temperature;BME280_humidity;BME280_pressure;Samples;Min_cycle;Max_cycle;Signal;HPM_P1;HPM_P2
2021/12/15 00:00:24;;;;;;;;;;;3.00;1.40;;;4.09;100.00;96545.69;653655;212;24726;-73
2021/12/15 00:03:06;;;;;;;;;;;3.00;1.40;;;4.16;100.00;96551.63;654870;216;24786;-72
2021/12/15 00:05:49;;;;;;;;;;;3.10;1.40;;;4.19;100.00;96554.31;653952;216;24729;-73
2021/12/15 00:08:28;;;;;;;;;;;3.10;1.40;;;4.18;100.00;96557.73;654566;212;24717;-73
2021/12/15 00:11:10;;;;;;;;;;;3.10;1.40;;;4.28;100.00;96560.93;654225;212;25353;-74
2021/12/15 00:13:57;;;;;;;;;;;3.10;1.40;;;4.32;100.00;96561.97;656980;212;24716;-74
2021/12/15 00:16:35;;;;;;;;;;;3.10;1.40;;;4.36;100.00;96558.41;652542;216;24847;-72
2021/12/15 00:19:16;;;;;;;;;;;3.10;1.40;;;4.37;100.00;96554.50;654681;216;24899;-74
2021/12/15 00:21:58;;;;;;;;;;;3.10;1.40;;;4.36;100.00;96559.09;652381;212;24818;-73
2021/12/15 00:24:39;;;;;;;;;;;3.10;1.40;;;4.28;100.00;96557.43;655498;216;24804;-74
2021/12/15 00:27:21;;;;;;;;;;;3.10;1.40;;;4.25;100.00;96562.81;650202;216;25319;-73
2021/12/15 00:30:02;;;;;;;;;;;3.10;1.40;;;4.29;100.00;96565.56;655876;216;24720;-73
2021/12/15 00:32:46;;;;;;;;;;;3.10;1.40;;;4.37;100.00;96567.88;653806;212;24819;-74
2021/12/15 00:35:51;;;;;;;;;;;3.10;1.40;;;4.38;100.00;96566.66;651487;212;24933;-73
2021/12/15 00:38:32;;;;;;;;;;;3.10;1.40;;;4.16;100.00;96562.64;653395;216;24964;-73
2021/12/15 00:41:13;;;;;;;;;;;3.10;1.40;;;4.23;100.00;96562.84;652797;216;24808;-73
2021/12/15 00:43:58;;;;;;;;;;;3.10;1.40;;;4.27;100.00;96562.59;655729;216;25441;-73
2021/12/15 00:46:39;;;;;;;;;;;3.10;1.40;;;4.34;100.00;96561.64;654312;212;24861;-74
2021/12/15 00:49:21;;;;;;;;;;;3.10;1.40;;;4.36;100.00;96562.95;655750;212;24800;-74
2021/12/15 00:52:05;;;;;;;;;;;3.10;1.40;;;4.37;100.00;96563.03;652159;216;25285;-73
2021/12/15 00:54:46;;;;;;;;;;;3.10;1.40;;;4.38;100.00;96565.91;652918;212;24825;-73
2021/12/15 00:57:28;;;;;;;;;;;3.10;1.40;;;4.43;100.00;96567.12;651549;216;25562;-73
2021/12/15 01:00:10;;;;;;;;;;;3.10;1.40;;;4.46;100.00;96568.20;653233;216;24803;-74
2021/12/15 01:02:51;;;;;;;;;;;3.20;1.40;;;4.52;100.00;96573.95;652978;212;25279;-72
2021/12/15 01:05:34;;;;;;;;;;;3.20;1.40;;;4.58;100.00;96572.45;647476;216;25570;-73
2021/12/15 01:08:14;;;;;;;;;;;3.20;1.40;;;4.57;100.00;96573.66;649050;215;24827;-74
2021/12/15 01:11:09;;;;;;;;;;;3.20;1.40;;;4.53;100.00;96577.35;654138;216;24842;-74
2021/12/15 01:22:06;;;;;;;;;;;3.20;1.40;;;4.52;100.00;96585.72;642302;216;25682;-74
2021/12/15 01:24:47;;;;;;;;;;;3.20;1.40;;;4.58;100.00;96587.86;654119;212;25653;-74
2021/12/15 01:27:28;;;;;;;;;;;3.20;1.40;;;4.47;100.00;96588.77;650888;212;24876;-73
2021/12/15 01:30:10;;;;;;;;;;;3.20;1.40;;;4.42;100.00;96592.52;655643;216;24806;-74
2021/12/15 01:33:00;;;;;;;;;;;3.10;1.40;;;4.52;100.00;96586.23;607560;233;24923;-72
2021/12/15 01:35:51;;;;;;;1.62;1.50;;;3.20;1.40;;;4.47;100.00;96588.56;646711;216;31580;-73
2021/12/15 01:38:33;;;;;;;;;;;3.20;1.40;;;4.39;100.00;96591.27;653835;212;25307;-71
2021/12/15 01:41:20;;;;;;;;;;;3.10;1.40;;;4.39;100.00;96592.77;654702;216;25285;-73
2021/12/15 01:49:37;;;;;;;;;;;3.20;1.40;;;4.52;100.00;96597.16;654810;216;25714;-74
2021/12/15 01:52:17;;;;;;;;;;;3.20;1.40;;;4.48;100.00;96599.80;654255;216;24897;-74
2021/12/15 01:54:59;;;;;;;;;;;3.20;1.40;;;4.37;100.00;96602.71;654051;212;24994;-74
2021/12/15 01:57:40;;;;;;;;;;;3.10;1.40;;;4.34;100.00;96604.36;649494;217;24886;-73
2021/12/15 02:00:24;;;;;;;;;;;3.10;1.40;;;4.25;100.00;96607.31;655089;216;24823;-74
2021/12/15 02:03:04;;;;;;;;;;;3.10;1.40;;;4.33;100.00;96605.47;652852;212;24866;-74
2021/12/15 02:05:49;;;;;;;;;;;3.10;1.40;;;4.29;100.00;96606.91;645794;216;24860;-73
2021/12/15 02:08:30;;;;;;;;;;;3.00;1.40;;;4.18;100.00;96601.75;655318;216;24903;-73
2021/12/15 02:11:11;;;;;;;;;;;3.00;1.40;;;4.09;100.00;96600.50;657384;216;24794;-73
2021/12/15 02:13:53;;;;;;;;;;;3.00;1.40;;;4.03;100.00;96601.44;653250;212;24861;-73
2021/12/15 02:16:34;;;;;;;;;;;3.00;1.40;;;4.06;100.00;96599.15;655764;216;24728;-74
2021/12/15 02:19:15;;;;;;;;;;;3.00;1.40;;;4.04;100.00;96598.19;652770;216;24838;-72
2021/12/15 02:21:58;;;;;;;;;;;3.00;1.40;;;4.04;100.00;96600.83;656031;216;25611;-74
2021/12/15 02:24:40;;;;;;;;;;;3.00;1.40;;;4.19;100.00;96596.88;655412;216;24810;-74
2021/12/15 02:27:19;;;;;;;;;;;3.00;1.40;;;4.13;100.00;96594.87;656139;216;24824;-73
2021/12/15 02:30:18;;;;;;;;;;;3.00;1.40;;;4.17;100.00;96591.53;653132;212;25339;-73
2021/12/15 02:33:02;;;;;;;;;;;3.00;1.40;;;4.05;100.00;96584.22;657282;216;24811;-73
2021/12/15 02:38:40;;;;;;;;;;;3.00;1.40;;;4.09;100.00;96578.53;651897;212;24826;-73
2021/12/15 02:41:20;;;;;;;;;;;3.00;1.40;;;4.08;100.00;96581.06;654624;216;25042;-73
2021/12/15 02:44:03;;;;;;;;;;;3.00;1.40;;;4.10;100.00;96580.91;654291;212;24907;-74
2021/12/15 02:46:44;;;;;;;;;;;3.00;1.40;;;4.15;100.00;96582.15;652367;212;24801;-73
2021/12/15 02:49:27;;;;;;;;;;;3.00;1.40;;;4.23;100.00;96585.20;654863;216;24809;-73
2021/12/15 02:52:08;;;;;;;;;;;3.00;1.40;;;4.15;100.00;96579.41;657609;212;25088;-74
2021/12/15 02:54:52;;;;;;;;;;;3.00;1.40;;;4.22;100.00;96583.86;656670;216;24818;-73
2021/12/15 02:57:34;;;;;;;;;;;3.00;1.40;;;4.20;100.00;96586.17;653141;216;24798;-73
2021/12/15 03:00:20;;;;;;;;;;;3.00;1.40;;;4.21;100.00;96585.02;635944;218;24907;-73
2021/12/15 03:03:29;;;;;;;;;;;3.00;1.40;;;4.26;100.00;96584.16;626045;224;25253;-74
2021/12/15 03:05:54;;;;;;;;;;;3.00;1.40;;;4.28;100.00;96582.52;641060;217;24990;-73
2021/12/15 03:08:50;;;;;;;;;;;3.10;1.40;;;4.37;100.00;96582.86;651067;212;24731;-73
2021/12/15 03:16:47;;;;;;;;;;;3.10;1.40;;;4.38;100.00;96586.04;652900;216;24834;-74
2021/12/15 03:19:28;;;;;;;;;;;3.10;1.40;;;4.27;100.00;96590.78;656681;212;24798;-73
2021/12/15 03:22:10;;;;;;;;;;;3.00;1.40;;;4.30;100.00;96586.84;657253;212;24802;-74
2021/12/15 03:24:51;;;;;;;;;;;3.10;1.40;;;4.28;100.00;96586.95;657855;212;24899;-73
2021/12/15 03:33:28;;;;;;;;;;;3.00;1.40;;;4.30;100.00;96580.67;651972;216;24902;-74
2021/12/15 03:36:04;;;;;;;3.30;2.40;;;3.00;1.40;;;4.20;100.00;96571.78;647545;216;32197;-73
2021/12/15 03:38:45;;;;;;;;;;;3.00;1.40;;;4.17;100.00;96577.73;652412;216;25278;-73
2021/12/15 03:41:27;;;;;;;;;;;3.00;1.40;;;4.26;100.00;96587.69;655651;216;24793;-73
2021/12/15 03:44:08;;;;;;;;;;;3.00;1.40;;;4.26;100.00;96589.58;621992;227;25062;-73
2021/12/15 03:46:49;;;;;;;;;;;3.10;1.40;;;4.27;100.00;96582.45;652884;216;24867;-74
2021/12/15 03:49:36;;;;;;;;;;;3.10;1.40;;;4.35;100.00;96585.71;610995;233;24950;-73
2021/12/15 03:52:17;;;;;;;;;;;3.10;1.40;;;4.35;100.00;96585.06;656794;216;24936;-74
2021/12/15 03:54:58;;;;;;;;;;;3.10;1.40;;;4.44;100.00;96590.45;657268;216;24797;-74
2021/12/15 03:57:41;;;;;;;;;;;3.10;1.40;;;4.44;100.00;96589.12;655275;212;24862;-73
2021/12/15 04:00:22;;;;;;;;;;;3.10;1.40;;;4.38;100.00;96584.97;651176;216;24910;-73
2021/12/15 04:03:03;;;;;;;;;;;3.10;1.40;;;4.32;100.00;96584.26;650074;219;25392;-73
2021/12/15 04:05:45;;;;;;;;;;;3.00;1.40;;;4.35;100.00;96589.73;648275;212;24779;-74
2021/12/15 04:08:26;;;;;;;;;;;3.10;1.40;;;4.47;100.00;96596.50;654520;216;24812;-73
2021/12/15 04:11:07;;;;;;;;;;;3.10;1.40;;;4.55;100.00;96599.30;650458;214;24807;-74
2021/12/15 04:13:49;;;;;;;;;;;3.20;1.40;;;4.58;100.00;96603.28;654729;212;24827;-74
2021/12/15 04:19:30;;;;;;;;;;;3.10;1.40;;;4.30;100.00;96601.48;654444;216;24732;-74
2021/12/15 04:22:11;;;;;;;;;;;3.10;1.40;;;4.35;100.00;96605.89;654921;216;24816;-74
2021/12/15 04:24:55;;;;;;;;;;;3.10;1.40;;;4.49;100.00;96600.25;653575;212;25026;-73
2021/12/15 04:27:38;;;;;;;;;;;3.10;1.40;;;4.44;100.00;96599.47;653404;212;24846;-73
2021/12/15 04:30:19;;;;;;;;;;;3.10;1.40;;;4.37;100.00;96603.90;651951;216;24815;-74
2021/12/15 04:33:00;;;;;;;;;;;3.00;1.40;;;4.41;100.00;96612.95;654917;216;24823;-73
2021/12/15 04:35:52;;;;;;;6.05;3.72;;;3.10;1.40;;;4.49;100.00;96606.74;617806;222;31946;-73
2021/12/15 04:38:32;;;;;;;2.20;1.58;;;3.10;1.40;;;4.53;100.00;96613.64;649557;216;31730;-73
2021/12/15 04:41:16;;;;;;;1.20;1.03;;;3.20;1.40;;;4.48;100.00;96615.91;647147;216;31586;-73
2021/12/15 04:43:58;;;;;;;2.78;2.10;;;3.20;1.40;;;4.46;100.00;96609.06;616925;226;32145;-73
2021/12/15 04:46:39;;;;;;;2.70;2.30;;;3.10;1.40;;;4.49;100.00;96612.92;645712;216;31577;-73
2021/12/15 04:49:24;;;;;;;1.90;1.80;;;3.10;1.40;;;4.63;100.00;96621.59;646321;216;31607;-73
2021/12/15 04:52:06;;;;;;;1.60;1.50;;;3.20;1.40;;;4.64;100.00;96623.75;648873;212;42253;-73
2021/12/15 04:54:47;;;;;;;4.00;2.58;;;3.20;1.40;;;4.67;100.00;96617.77;646583;216;31984;-74
2021/12/15 04:57:29;;;;;;;3.95;2.95;;;3.20;1.40;;;4.60;100.00;96611.69;645992;216;32117;-73
2021/12/15 05:00:11;;;;;;;3.25;2.45;;;3.20;1.40;;;4.62;100.00;96613.29;620754;222;32492;-73
2021/12/15 05:02:53;;;;;;;2.28;2.12;;;3.20;1.40;;;4.70;100.00;96609.61;648271;212;31521;-73
2021/12/15 05:05:34;;;;;;;;;;;3.30;1.40;;;4.58;100.00;96614.23;647563;216;25300;-73
2021/12/15 05:08:15;;;;;;;;;;;3.20;1.40;;;4.61;100.00;96618.27;655630;216;24845;-73
2021/12/15 05:10:57;;;;;;;;;;;3.10;1.40;;;4.50;100.00;96616.98;654881;212;24986;-73
2021/12/15 05:13:38;;;;;;;;;;;3.10;1.40;;;4.47;100.00;96624.16;653378;216;25340;-73
2021/12/15 05:16:19;;;;;;;;;;;3.10;1.40;;;4.50;100.00;96632.49;654450;212;25519;-73
2021/12/15 05:19:01;;;;;;;;;;;3.10;1.40;;;4.55;100.00;96634.47;648641;216;24848;-74
2021/12/15 05:21:42;;;;;;;;;;;3.20;1.40;;;4.56;100.00;96634.06;654856;216;24901;-74
2021/12/15 05:24:30;;;;;;;;;;;3.20;1.40;;;4.60;100.00;96639.09;648968;216;25271;-74
2021/12/15 05:27:05;;;;;;;;;;;3.20;1.40;;;4.56;100.00;96643.41;650916;216;24723;-73
2021/12/15 05:29:50;;;;;;;;;;;3.20;1.40;;;4.49;100.00;96641.98;648670;217;24806;-74
2021/12/15 05:32:31;;;;;;;;;;;3.20;1.40;;;4.45;100.00;96642.88;655904;216;24737;-73
2021/12/15 05:35:56;;;;;;;2.42;2.12;;;3.20;1.40;;;4.43;100.00;96640.43;647732;216;32066;-73
2021/12/15 05:38:38;;;;;;;3.75;2.92;;;3.10;1.40;;;4.39;100.00;96648.02;649740;216;31739;-73
2021/12/15 05:41:20;;;;;;;2.60;2.40;;;3.10;1.40;;;4.43;100.00;96649.45;648810;212;31618;-74
2021/12/15 05:44:05;;;;;;;5.22;3.05;;;3.10;1.40;;;4.50;100.00;96649.99;648936;216;31596;-73
2021/12/15 05:46:46;;;;;;;3.00;2.42;;;3.20;1.40;;;4.49;100.00;96652.51;648308;216;42487;-74
2021/12/15 05:49:29;;;;;;;3.08;2.25;;;3.10;1.40;;;4.48;100.00;96657.42;648084;216;31712;-73
2021/12/15 05:52:11;;;;;;;2.58;2.37;;;3.10;1.40;;;4.57;100.00;96656.53;646369;212;31834;-72
2021/12/15 05:54:52;;;;;;;2.10;1.90;;;3.10;1.40;;;4.60;100.00;96654.66;619497;226;42634;-73
2021/12/15 05:57:34;;;;;;;3.40;3.00;;;3.10;1.40;;;4.58;100.00;96661.39;646422;212;42247;-73
2021/12/15 06:00:16;;;;;;;3.65;2.40;;;3.10;1.40;;;4.65;100.00;96661.84;625719;222;42911;-73
2021/12/15 06:03:00;;;;;;;4.28;3.17;;;3.20;1.40;;;4.64;100.00;96664.09;619898;226;42546;-73
2021/12/15 06:05:42;;;;;;;4.75;2.12;;;3.20;1.40;;;4.55;100.00;96666.64;615430;226;42733;-74
2021/12/15 06:08:26;;;;;;;4.62;2.35;;;3.20;1.40;;;4.62;100.00;96665.34;646355;216;31586;-73
2021/12/15 06:11:08;;;;;;;;;;;3.20;1.40;;;4.49;100.00;96673.11;654159;212;25364;-74
2021/12/15 06:13:50;;;;;;;;;;;3.10;1.40;;;4.50;100.00;96681.04;655972;216;24943;-73
2021/12/15 06:16:34;;;;;;;;;;;3.10;1.40;;;4.55;100.00;96682.59;654246;216;24859;-73
2021/12/15 06:19:15;;;;;;;;;;;3.10;1.40;;;4.58;100.00;96685.33;652716;216;24862;-73
2021/12/15 06:21:56;;;;;;;;;;;3.10;1.40;;;4.35;100.00;96687.08;658345;216;24999;-74
2021/12/15 06:24:41;;;;;;;;;;;3.10;1.40;;;4.33;100.00;96695.77;623412;224;25347;-74
2021/12/15 06:27:29;;;;;;;;;;;3.10;1.40;;;4.33;100.00;96698.98;656402;212;25261;-74
2021/12/15 06:30:09;;;;;;;;;;;3.10;1.40;;;4.35;100.00;96704.03;623105;224;25118;-73
2021/12/15 06:32:50;;;;;;;;;;;3.10;1.40;;;4.49;100.00;96706.16;653695;212;25493;-73
2021/12/15 06:35:54;;;;;;;10.63;2.20;;;3.10;1.40;;;4.53;100.00;96708.39;621835;222;31849;-74
2021/12/15 06:38:38;;;;;;;3.10;2.70;;;3.20;1.40;;;4.62;100.00;96712.77;645630;216;31875;-73
2021/12/15 06:41:20;;;;;;;2.90;2.70;;;3.20;1.40;;;4.62;100.00;96714.76;622168;222;32076;-73
2021/12/15 06:44:01;;;;;;;2.83;2.40;;;3.20;1.40;;;4.62;100.00;96717.55;645937;212;31610;-73
2021/12/15 06:47:12;;;;;;;5.50;3.83;;;3.20;1.40;;;4.69;100.00;96719.41;649779;212;31581;-73
2021/12/15 07:00:34;;;;;;;;;;;3.30;1.40;;;4.75;100.00;96729.79;655688;216;24818;-74
2021/12/15 07:03:15;;;;;;;;;;;3.40;1.40;;;4.70;100.00;96726.07;654890;212;25509;-74
2021/12/15 07:05:59;;;;;;;;;;;3.30;1.40;;;4.71;100.00;96721.27;643255;212;24863;-74
2021/12/15 07:08:41;;;;;;;;;;;3.30;1.40;;;4.66;100.00;96726.69;654750;212;24816;-74
2021/12/15 07:11:22;;;;;;;;;;;3.30;1.40;;;4.56;100.00;96735.47;656378;216;24815;-73
2021/12/15 07:14:03;;;;;;;;;;;3.30;1.40;;;4.62;100.00;96741.93;653167;212;25668;-74
2021/12/15 07:16:47;;;;;;;;;;;3.30;1.40;;;4.70;100.00;96745.47;653907;212;24819;-73
2021/12/15 07:19:34;;;;;;;;;;;3.40;1.40;;;4.74;100.00;96744.55;655270;216;24730;-73
2021/12/15 07:22:31;;;;;;;;;;;3.40;1.40;;;4.66;100.00;96745.75;652018;216;24929;-73
2021/12/15 07:25:02;;;;;;;;;;;3.40;1.40;;;4.69;100.00;96747.55;650164;212;24812;-73
2021/12/15 07:27:43;;;;;;;;;;;3.40;1.40;;;4.71;100.00;96744.31;654383;216;24719;-73
2021/12/15 07:30:28;;;;;;;;;;;3.40;1.40;;;4.80;100.00;96746.91;655837;216;25008;-73
2021/12/15 07:35:51;;;;;;;;;;;3.40;1.40;;;4.73;100.00;96743.55;653543;212;25424;-74
2021/12/15 07:38:34;;;;;;;;;;;3.40;1.40;;;4.58;100.00;96748.88;655290;216;24857;-73
2021/12/15 07:41:25;;;;;;;;;;;3.40;1.40;;;4.64;100.00;96751.91;651754;212;24737;-74
2021/12/15 07:44:02;;;;;;;;;;;3.40;1.40;;;4.81;100.00;96756.94;653968;212;24847;-72
2021/12/15 07:46:43;;;;;;;;;;;3.50;1.40;;;4.93;100.00;96760.13;655291;212;24884;-74
2021/12/15 07:49:24;;;;;;;;;;;3.60;1.40;;;4.94;100.00;96754.56;655390;216;24833;-74
2021/12/15 07:52:06;;;;;;;;;;;3.60;1.40;;;4.98;100.00;96761.80;654313;216;24910;-73
2021/12/15 07:54:47;;;;;;;;;;;3.60;1.40;;;5.03;100.00;96760.53;653641;216;24849;-73
2021/12/15 07:57:32;;;;;;;;;;;3.60;1.40;;;4.94;100.00;96765.67;651974;216;24726;-73
2021/12/15 08:00:13;;;;;;;;;;;3.60;1.40;;;4.86;100.00;96762.61;655368;216;24748;-74
2021/12/15 08:02:56;;;;;;;;;;;3.50;1.40;;;4.84;100.00;96774.18;649117;214;25178;-74
2021/12/15 08:05:37;;;;;;;;;;;3.60;1.40;;;4.91;100.00;96776.75;648764;212;24750;-74
2021/12/15 08:08:19;;;;;;;;;;;3.60;1.40;;;5.03;100.00;96780.73;654596;216;24865;-75
2021/12/15 08:11:00;;;;;;;;;;;3.60;1.40;;;4.91;100.00;96786.84;652554;216;24833;-76
2021/12/15 08:13:41;;;;;;;;;;;3.60;1.40;;;4.99;100.00;96791.32;656248;216;24716;-75
2021/12/15 08:16:22;;;;;;;;;;;3.70;1.40;;;5.11;100.00;96791.39;651595;215;24864;-76
2021/12/15 08:19:04;;;;;;;;;;;3.70;1.40;;;5.12;100.00;96794.41;652774;216;24935;-74
2021/12/15 08:21:45;;;;;;;;;;;3.70;1.40;;;5.03;100.00;96797.17;653792;212;24806;-74
2021/12/15 08:24:27;;;;;;;;;;;3.70;1.40;;;5.01;100.00;96790.13;652653;212;24960;-76
2021/12/15 08:27:08;;;;;;;;;;;3.70;1.40;;;4.92;100.00;96792.45;654926;212;24890;-76
2021/12/15 08:29:54;;;;;;;;;;;3.70;1.40;;;5.09;100.00;96790.70;655478;216;25000;-76
2021/12/15 08:32:38;;;;;;;;;;;3.80;1.40;;;5.27;100.00;96796.81;649958;215;24744;-75
2021/12/15 08:35:58;;;;;;;6.40;3.62;;;3.90;1.40;;;5.25;100.00;96795.53;648277;212;31518;-75
2021/12/15 08:38:39;;;;;;;6.80;4.28;;;3.90;1.40;;;5.45;100.00;96792.09;647489;212;31568;-75
2021/12/15 08:41:23;;;;;;;5.03;2.50;;;3.90;1.40;;;5.45;100.00;96794.83;618509;226;31933;-75
2021/12/15 08:44:06;;;;;;;5.22;3.47;;;4.00;1.40;;;5.34;100.00;96796.95;648553;212;31585;-75
2021/12/15 08:46:47;;;;;;;3.30;3.00;;;3.90;1.40;;;5.26;100.00;96790.91;650440;216;31891;-76
2021/12/15 08:49:29;;;;;;;4.72;3.30;;;3.90;1.40;;;5.27;100.00;96786.97;620730;222;32010;-76
2021/12/15 08:52:10;;;;;;;4.55;3.12;;;3.90;1.40;;;5.09;100.00;96784.63;648421;216;31892;-76
2021/12/15 08:54:52;;;;;;;2.83;2.37;;;3.90;1.40;;;5.28;100.00;96782.47;644315;212;31554;-76
2021/12/15 08:57:37;;;;;;;3.73;3.30;;;4.00;1.40;;;5.29;100.00;96787.97;647753;216;31538;-76
2021/12/15 09:00:19;;;;;;;4.35;4.00;;;4.10;1.40;;;5.72;100.00;96786.23;642399;217;31599;-76
2021/12/15 09:03:00;;;;;;;5.10;3.90;;;4.20;1.40;;;5.83;100.00;96794.27;649392;212;31595;-76
2021/12/15 09:05:42;;;;;;;4.95;4.55;;;4.30;1.40;;;5.69;100.00;96789.67;640816;212;31715;-76
2021/12/15 09:11:01;;;;;;;4.47;3.50;;;4.20;1.40;;;5.66;100.00;96792.80;646107;216;31571;-76
2021/12/15 09:13:43;;;;;;;4.00;3.50;;;4.30;1.40;;;6.02;100.00;96789.87;643512;216;31675;-75
2021/12/15 09:16:24;;;;;;;4.00;3.25;;;4.40;1.40;;;6.08;100.00;96789.83;621121;222;32055;-76
2021/12/15 09:19:06;;;;;;;3.67;3.37;;;4.40;1.40;;;6.13;100.00;96793.56;647180;216;31592;-76
2021/12/15 09:21:52;;;;;;;5.95;3.47;;;4.40;1.40;;;6.11;100.00;96795.52;648293;216;31586;-75
2021/12/15 09:24:32;;;;;;;3.70;2.50;;;4.40;1.40;;;6.09;100.00;96797.64;622468;222;31967;-76
2021/12/15 09:27:14;;;;;;;4.18;3.67;;;4.40;1.40;;;6.16;100.00;96795.52;646512;216;31952;-75
2021/12/15 09:29:56;;;;;;;4.12;3.37;;;4.40;1.40;;;5.93;100.00;96793.34;648467;212;31667;-76
2021/12/15 09:32:37;;;;;;;3.63;3.00;;;4.40;1.40;;;5.83;100.00;96788.78;648417;212;31881;-76
2021/12/15 09:35:50;;;;;;;3.53;3.22;;;4.30;1.40;;;5.69;100.00;96790.09;651603;216;42174;-76
2021/12/15 09:38:32;;;;;;;4.40;3.60;;;4.30;1.40;;;5.54;100.00;96794.05;622659;226;32347;-76
2021/12/15 09:41:14;;;;;;;5.07;3.30;;;4.30;1.40;;;5.78;100.00;96787.13;646497;212;31567;-76
2021/12/15 09:44:05;;;;;;;4.40;3.40;;;4.40;1.40;;;5.63;100.00;96788.59;647528;212;31667;-76
2021/12/15 09:47:05;;;;;;;2.53;2.33;;;4.40;1.40;;;5.66;100.00;96790.16;647058;212;31653;-76
2021/12/15 10:06:29;;;;;;;5.00;3.22;;;4.30;1.40;;;5.22;100.00;96794.02;636169;212;31721;-75
2021/12/15 10:12:07;;;;;;;5.97;3.40;;;4.40;1.40;;;5.44;100.00;96787.22;647538;216;31555;-77
2021/12/15 10:17:35;;;;;;;3.55;2.70;;;4.40;1.40;;;5.33;100.00;96782.58;645573;212;31603;-75
2021/12/15 10:20:06;;;;;;;3.10;2.90;;;4.40;1.40;;;5.25;100.00;96780.05;646918;212;31767;-76
2021/12/15 10:22:50;;;;;;;3.47;3.17;;;4.30;1.40;;;5.51;100.00;96770.95;646976;212;31597;-75
2021/12/15 10:25:32;;;;;;;3.40;3.00;;;4.40;1.40;;;5.33;100.00;96775.95;646666;212;31585;-76
2021/12/15 10:28:14;;;;;;;5.05;3.45;;;4.30;1.40;;;5.48;100.00;96774.23;646536;216;31949;-76
2021/12/15 10:35:57;;;;;;;3.00;2.80;;;4.60;1.40;;;6.13;100.00;96761.73;643130;217;31569;-76
2021/12/15 10:38:41;;;;;;;3.27;2.37;;;4.70;1.40;;;5.64;100.00;96765.47;649015;212;31659;-76
2021/12/15 10:41:37;;;;;;;2.55;2.35;;;4.60;1.40;;;5.45;100.00;96761.31;647093;212;31577;-76
2021/12/15 10:44:21;;;;;;;3.73;1.90;;;4.50;1.40;;;5.63;100.00;96762.11;646035;212;31968;-76
2021/12/15 10:47:03;;;;;;;3.72;1.60;;;4.60;1.40;;;5.38;100.00;96759.16;646777;216;31961;-76
2021/12/15 10:49:42;;;;;;;3.20;2.70;;;4.50;1.40;;;5.54;100.00;96760.36;643367;216;31534;-76
2021/12/15 10:52:23;;;;;;;2.60;2.20;;;4.60;1.40;;;5.58;100.00;96759.06;647394;216;31568;-76
2021/12/15 10:55:08;;;;;;;2.60;1.60;;;4.70;1.40;;;5.67;100.00;96762.99;647819;212;32285;-76
2021/12/15 10:57:49;;;;;;;2.87;2.13;;;4.60;1.40;;;5.35;100.00;96761.90;618005;222;32721;-77
2021/12/15 11:00:34;;;;;;;1.90;1.70;;;4.50;1.40;;;5.83;100.00;96762.84;646154;212;31566;-76
2021/12/15 11:03:23;;;;;;;2.63;1.93;;;4.70;1.40;;;5.67;100.00;96754.55;620476;222;31984;-75
2021/12/15 11:05:59;;;;;;;2.00;1.80;;;4.70;1.40;;;5.55;100.00;96759.74;645197;216;31571;-76
2021/12/15 11:08:44;;;;;;;1.53;1.10;;;4.60;1.40;;;5.86;100.00;96752.83;652630;216;27722;-76
2021/12/15 11:11:27;;;;;;;3.67;2.33;;;4.70;1.40;;;5.90;100.00;96752.01;646989;216;32138;-76
2021/12/15 11:14:25;;;;;;;1.90;1.60;;;4.80;1.40;;;5.94;100.00;96750.56;647697;216;31837;-76
2021/12/15 11:17:12;;;;;;;2.50;1.90;;;4.70;1.40;;;5.82;100.00;96746.89;642541;215;31608;-76
2021/12/15 11:19:54;;;;;;;3.37;2.90;;;4.80;1.40;;;5.86;100.00;96745.83;646395;212;31602;-76
2021/12/15 11:22:57;;;;;;;3.67;2.30;;;4.80;1.40;;;6.09;100.00;96743.04;647547;212;31552;-77
2021/12/15 11:25:59;;;;;;;2.62;1.45;;;4.90;1.40;;;6.30;100.00;96745.57;646348;216;31512;-76
2021/12/15 11:28:40;;;;;;;1.60;1.50;;;4.90;1.40;;;5.77;100.00;96743.30;646629;212;31823;-76
2021/12/15 11:31:23;;;;;;;1.90;1.43;;;4.70;1.40;;;6.03;100.00;96741.28;645884;212;31574;-76
2021/12/15 11:35:54;;;;;;;1.67;1.48;;;4.80;1.40;;;6.30;100.00;96737.00;647018;216;42755;-76
2021/12/15 11:38:44;;;;;;;2.43;1.83;;;4.90;1.40;;;6.21;100.00;96736.97;646797;213;31544;-76
2021/12/15 11:41:29;;;;;;;4.43;2.67;;;4.80;1.40;;;6.22;100.00;96741.08;646607;212;31634;-76
2021/12/15 11:44:16;;;;;;;3.30;1.87;;;4.80;1.40;;;6.03;100.00;96734.38;647203;216;31640;-76
2021/12/15 11:47:01;;;;;;;3.22;1.75;;;4.80;1.40;;;6.05;100.00;96728.28;615639;224;31954;-76
2021/12/15 11:49:41;;;;;;;2.60;1.90;;;4.80;1.40;;;6.57;100.00;96732.98;621243;226;42554;-76
2021/12/15 11:52:22;;;;;;;3.10;2.10;;;4.90;1.40;;;6.60;100.00;96730.45;630852;222;31716;-76
2021/12/15 11:55:05;;;;;;;1.70;1.60;;;4.90;1.40;;;6.23;100.00;96729.89;619874;222;31999;-77
2021/12/15 11:57:47;;;;;;;2.40;2.05;;;4.80;1.40;;;5.95;100.00;96727.69;621177;226;31978;-75
2021/12/15 12:00:28;;;;;;;2.07;1.53;;;4.80;1.40;;;5.69;100.00;96730.38;647221;212;31689;-76
2021/12/15 12:03:11;;;;;;;2.70;2.00;;;4.60;1.40;;;5.64;100.00;96728.73;619135;222;31938;-75
2021/12/15 12:05:52;;;;;;;2.40;1.60;;;4.70;1.40;;;5.58;100.00;96725.09;639012;216;31757;-76
2021/12/15 12:08:37;;;;;;;3.00;2.03;;;4.60;1.40;;;5.46;100.00;96721.33;647488;216;31549;-76
2021/12/15 12:11:19;;;;;;;1.92;1.77;;;4.60;1.40;;;5.40;100.00;96716.31;646798;212;31610;-76
2021/12/15 12:14:01;;;;;;;1.30;1.20;;;4.60;1.40;;;5.43;100.00;96714.49;646994;216;31563;-76
2021/12/15 12:16:43;;;;;;;3.00;1.33;;;4.60;1.40;;;5.57;100.00;96711.03;647480;216;31561;-76
2021/12/15 12:19:24;;;;;;;2.90;1.80;;;4.60;1.40;;;5.68;100.00;96709.00;647150;216;31886;-76
2021/12/15 12:22:06;;;;;;;1.65;1.55;;;4.60;1.40;;;5.49;100.00;96705.83;646248;212;31515;-76
2021/12/15 12:24:48;;;;;;;4.20;2.00;;;4.60;1.40;;;5.74;100.00;96702.11;647622;216;31565;-76
2021/12/15 12:27:30;;;;;;;1.20;1.10;;;4.70;1.40;;;5.57;100.00;96700.37;647139;216;31530;-76
2021/12/15 12:30:16;;;;;;;1.47;1.27;;;4.60;1.40;;;5.44;100.00;96699.98;619314;226;31828;-76
2021/12/15 12:32:59;;;;;;;2.80;1.40;;;4.60;1.40;;;5.46;100.00;96702.39;647385;216;32189;-76
2021/12/15 12:36:07;;;;;;;;;;;4.60;1.40;;;5.46;100.00;96703.52;654145;216;24826;-76
2021/12/15 12:38:49;;;;;;;;;;;4.60;1.40;;;5.37;100.00;96695.47;649073;215;24815;-76
2021/12/15 12:41:37;;;;;;;;;;;4.60;1.40;;;5.37;100.00;96692.52;653194;212;24835;-75
2021/12/15 12:44:23;;;;;;;;;;;4.60;1.40;;;5.47;100.00;96691.97;649521;214;24929;-77
2021/12/15 12:47:11;;;;;;;;;;;4.60;1.40;;;5.45;100.00;96689.04;653555;212;24845;-76
2021/12/15 12:50:08;;;;;;;;;;;4.60;1.40;;;5.63;100.00;96682.23;652940;216;24831;-75
2021/12/15 13:01:12;;;;;;;;;;;4.60;1.40;;;5.45;100.00;96680.91;654688;216;24727;-76
2021/12/15 13:03:57;;;;;;;;;;;4.60;1.40;;;5.23;100.00;96684.39;652408;212;24802;-76
2021/12/15 13:06:39;;;;;;;;;;;4.50;1.40;;;5.20;100.00;96679.91;643381;212;24926;-75
2021/12/15 13:09:20;;;;;;;;;;;4.40;1.40;;;5.11;100.00;96682.27;649956;215;24813;-75
2021/12/15 13:12:05;;;;;;;;;;;4.40;1.40;;;5.16;100.00;96685.22;650994;215;24915;-76
2021/12/15 13:14:46;;;;;;;;;;;4.40;1.40;;;5.36;100.00;96681.47;655240;212;25211;-76
2021/12/15 13:17:34;;;;;;;;;;;4.50;1.40;;;5.43;100.00;96688.08;648269;215;24835;-76
2021/12/15 13:20:24;;;;;;;;;;;4.50;1.40;;;5.65;100.00;96685.70;653971;212;24802;-76
2021/12/15 13:23:28;;;;;;;;;;;4.50;1.40;;;5.58;100.00;96686.12;637147;220;24839;-76
2021/12/15 13:28:55;;;;;;;;;;;4.50;1.40;;;5.68;100.00;96683.70;654516;216;25054;-75
2021/12/15 13:31:35;;;;;;;;;;;4.50;1.40;;;5.66;100.00;96682.55;652890;212;24893;-76
2021/12/15 13:35:52;;;;;;;;;;;4.40;1.40;;;5.42;100.00;96686.02;652982;216;24812;-76
2021/12/15 13:38:48;;;;;;;;;;;4.30;1.40;;;5.44;100.00;96678.95;653644;216;24811;-76
2021/12/15 13:41:40;;;;;;;;;;;4.30;1.40;;;5.53;100.00;96670.66;653217;216;24826;-76
2021/12/15 13:44:35;;;;;;;;;;;4.40;1.40;;;5.34;100.00;96672.34;653353;212;25344;-75
2021/12/15 13:47:16;;;;;;;;;;;4.30;1.40;;;5.35;100.00;96673.23;653747;216;24739;-76
2021/12/15 13:50:00;;;;;;;;;;;4.30;1.40;;;5.49;100.00;96681.30;654666;216;24901;-76
2021/12/15 13:52:43;;;;;;;;;;;4.40;1.40;;;5.35;100.00;96677.26;653300;216;24881;-76